Time;durP1;ratioP1;P1;durP2;ratioP2;P2;SDS_P1;SDS_P2;PMS_P1;PMS_P2;Temp;Humidity;BMP_temperature;BMP_pressure;BME280_temperature;BME280_humidity;BME280_pressure;Samples;Min_cycle;Max_cycle;Signal;HPM_P1;HPM_P2
2021/11/20 00:02:23;;;;;;;26.07;16.85;;;25.40;95.80;;;;;;1804181;78;21151;-79
2021/11/20 00:04:56;;;;;;;32.05;16.48;;;25.40;95.60;;;;;;1799355;78;21720;-80
2021/11/20 00:07:27;;;;;;;29.18;16.45;;;25.50;95.50;;;;;;1799256;78;21236;-79
2021/11/20 00:09:58;;;;;;;24.25;16.27;;;25.50;95.40;;;;;;1767280;79;21158;-79
2021/11/20 00:12:31;;;;;;;29.52;17.07;;;25.60;95.40;;;;;;1797434;78;21166;-79
2021/11/20 00:15:02;;;;;;;30.52;18.82;;;25.60;95.70;;;;;;1796669;78;21576;-72
2021/11/20 00:17:33;;;;;;;31.45;21.87;;;25.70;95.30;;;;;;1792937;78;21450;-72
2021/11/20 00:20:07;;;;;;;27.52;18.50;;;25.80;95.30;;;;;;1810051;78;21228;-72
2021/11/20 00:22:40;;;;;;;31.50;19.10;;;25.80;95.10;;;;;;1763617;79;21203;-73
2021/11/20 00:25:19;;;;;;;29.57;19.12;;;25.90;95.00;;;;;;1739810;81;21231;-73
2021/11/20 00:27:46;;;;;;;27.52;19.40;;;26.00;94.90;;;;;;1761996;80;21159;-73
2021/11/20 00:30:22;;;;;;;28.62;18.98;;;26.10;94.80;;;;;;1763698;80;21143;-75
2021/11/20 00:32:53;;;;;;;28.60;18.82;;;26.10;94.70;;;;;;1750149;80;21453;-75
2021/11/20 00:35:26;;;;;;;30.48;19.98;;;26.20;94.40;;;;;;1763503;79;21075;-73
2021/11/20 00:37:57;;;;;;;28.98;19.15;;;26.20;94.20;;;;;;1770882;79;21126;-72
2021/11/20 00:40:30;;;;;;;31.85;19.95;;;26.30;94.00;;;;;;1780176;79;22004;-73
2021/11/20 00:43:01;;;;;;;28.87;19.35;;;26.40;93.90;;;;;;1792898;78;21579;-73
2021/11/20 00:45:34;;;;;;;29.60;19.48;;;26.50;93.90;;;;;;1802662;78;21620;-75
2021/11/20 00:48:06;;;;;;;25.90;19.10;;;26.50;93.50;;;;;;1756654;80;21151;-74
2021/11/20 00:50:39;;;;;;;25.20;18.42;;;26.60;93.40;;;;;;1754356;80;21646;-73
2021/11/20 00:53:10;;;;;;;26.87;17.12;;;26.60;93.20;;;;;;1744087;81;21199;-74
2021/11/20 00:55:41;;;;;;;24.12;15.70;;;26.70;93.00;;;;;;1762649;79;21162;-74
2021/11/20 00:58:12;;;;;;;21.75;15.70;;;26.70;92.70;;;;;;1768112;79;21162;-74
2021/11/20 01:00:45;;;;;;;21.68;16.62;;;26.80;92.60;;;;;;1794283;78;21175;-74
2021/11/20 01:03:16;;;;;;;21.40;15.55;;;26.90;92.60;;;;;;1796080;78;21120;-73
2021/11/20 01:05:47;;;;;;;21.40;16.70;;;26.90;92.60;;;;;;1796162;78;21130;-75
2021/11/20 01:08:20;;;;;;;29.25;16.80;;;27.00;92.40;;;;;;1808080;78;21175;-76
2021/11/20 01:10:53;;;;;;;22.02;15.85;;;27.00;92.30;;;;;;1797088;78;21167;-73
2021/11/20 01:13:24;;;;;;;28.57;19.20;;;27.10;92.30;;;;;;1798657;78;21191;-73
2021/11/20 01:15:58;;;;;;;28.32;18.67;;;27.20;92.30;;;;;;1785386;78;21615;-74
2021/11/20 01:18:31;;;;;;;25.90;18.17;;;27.20;92.10;;;;;;1805051;78;21721;-74
2021/11/20 01:21:02;;;;;;;29.05;18.95;;;27.20;92.10;;;;;;1806458;78;21167;-74
2021/11/20 01:23:34;;;;;;;34.45;18.80;;;27.20;92.20;;;;;;1798270;78;21658;-73
2021/11/20 01:26:06;;;;;;;29.90;18.98;;;27.30;92.20;;;;;;1791744;78;21538;-74
2021/11/20 01:28:38;;;;;;;26.23;18.17;;;27.30;92.00;;;;;;1799354;78;21464;-73
2021/11/20 01:31:12;;;;;;;25.72;16.80;;;27.30;91.90;;;;;;1802193;78;21156;-74
2021/11/20 01:33:45;;;;;;;26.12;17.25;;;27.40;91.90;;;;;;1800336;78;21313;-73
2021/11/20 01:36:18;;;;;;;22.02;14.85;;;27.40;91.80;;;;;;1788645;78;21593;-72
2021/11/20 01:38:51;;;;;;;22.25;16.20;;;27.50;91.80;;;;;;1797061;78;21237;-73
2021/11/20 01:41:29;;;;;;;23.60;15.98;;;27.50;91.70;;;;;;1801067;78;21247;-76
2021/11/20 01:43:59;;;;;;;22.75;14.98;;;27.60;91.50;;;;;;1793030;78;21225;-73
2021/11/20 01:46:32;;;;;;;27.93;15.85;;;27.70;91.30;;;;;;1797317;78;21193;-73
2021/11/20 01:49:06;;;;;;;21.93;14.58;;;27.70;91.00;;;;;;1768315;79;21295;-72
2021/11/20 01:51:40;;;;;;;17.90;13.55;;;27.80;90.80;;;;;;1799903;78;21179;-77
2021/11/20 01:54:11;;;;;;;24.60;14.20;;;27.90;90.30;;;;;;1800498;78;21156;-72
2021/11/20 01:56:50;;;;;;;20.43;12.23;;;27.90;90.30;;;;;;1788259;78;21688;-73
2021/11/20 01:59:24;;;;;;;16.35;10.65;;;28.00;90.00;;;;;;1796608;78;21172;-74
2021/11/20 02:01:59;;;;;;;14.78;10.38;;;28.00;89.50;;;;;;1796150;78;21189;-77
2021/11/20 02:04:33;;;;;;;17.27;12.15;;;28.00;89.20;;;;;;1801568;78;21616;-73
2021/11/20 02:07:09;;;;;;;19.90;11.55;;;28.10;89.30;;;;;;1800743;78;21195;-78
2021/11/20 02:10:02;;;;;;;14.95;9.98;;;28.10;89.20;;;;;;1800177;78;21238;-75
2021/11/20 02:12:35;;;;;;;13.48;9.43;;;28.20;89.00;;;;;;1851876;75;21228;-73
2021/11/20 02:15:08;;;;;;;16.30;11.53;;;28.20;87.50;;;;;;1853325;77;21177;-74
2021/11/20 02:17:41;;;;;;;13.62;8.93;;;28.30;88.00;;;;;;1855897;75;21221;-72
2021/11/20 02:20:16;;;;;;;11.38;7.60;;;28.40;88.10;;;;;;1852355;77;21181;-72
2021/11/20 02:22:46;;;;;;;12.40;7.87;;;28.50;86.90;;;;;;1847093;75;21944;-74
2021/11/20 02:25:15;;;;;;;13.78;9.58;;;28.50;87.10;;;;;;1848693;77;21126;-71
2021/11/20 02:27:49;;;;;;;18.67;11.28;;;28.60;87.30;;;;;;1857371;75;21182;-73
2021/11/20 02:30:23;;;;;;;13.13;9.33;;;28.70;87.60;;;;;;1853158;75;21070;-73
2021/11/20 02:32:56;;;;;;;16.00;9.70;;;28.70;87.90;;;;;;1852104;77;22365;-74
2021/11/20 02:35:29;;;;;;;14.90;9.40;;;28.70;87.60;;;;;;1846306;75;21712;-74
2021/11/20 02:38:01;;;;;;;16.23;9.55;;;28.70;87.40;;;;;;1860302;75;21079;-74
2021/11/20 02:40:32;;;;;;;14.33;9.43;;;28.80;87.30;;;;;;1852001;75;21646;-75
2021/11/20 02:43:04;;;;;;;14.87;9.60;;;28.90;87.00;;;;;;1848122;75;21693;-74
2021/11/20 02:45:37;;;;;;;13.80;8.08;;;28.90;86.90;;;;;;1855819;77;21122;-76
2021/11/20 02:48:09;;;;;;;14.75;8.45;;;28.90;86.10;;;;;;1854143;77;21188;-75
2021/11/20 02:50:42;;;;;;;14.50;8.65;;;28.90;85.60;;;;;;1855908;77;21663;-74
2021/11/20 02:53:15;;;;;;;12.53;8.55;;;29.00;86.50;;;;;;1855625;75;21138;-75
2021/11/20 02:55:48;;;;;;;15.53;9.48;;;29.00;86.00;;;;;;1860028;75;21106;-74
2021/11/20 02:58:21;;;;;;;17.07;11.12;;;29.10;85.50;;;;;;1856275;75;21633;-74
2021/11/20 03:00:54;;;;;;;12.05;8.50;;;29.10;85.30;;;;;;1854792;76;21661;-76
2021/11/20 03:03:30;;;;;;;13.20;8.83;;;29.20;85.20;;;;;;1845607;76;21090;-77
2021/11/20 03:06:01;;;;;;;22.42;8.65;;;29.20;84.70;;;;;;1855859;75;21146;-74
2021/11/20 03:08:31;;;;;;;17.37;9.20;;;29.30;84.60;;;;;;1852096;76;21708;-79
2021/11/20 03:11:03;;;;;;;13.00;7.90;;;29.40;84.50;;;;;;1855642;74;21131;-74
2021/11/20 03:13:35;;;;;;;13.90;7.42;;;29.40;84.80;;;;;;1852648;75;21491;-75
2021/11/20 03:16:06;;;;;;;17.37;7.25;;;29.50;84.00;;;;;;1856821;76;21617;-73
2021/11/20 03:18:37;;;;;;;20.43;8.25;;;29.70;83.90;;;;;;1856261;75;21584;-73
2021/11/20 03:21:08;;;;;;;11.68;7.75;;;29.80;83.00;;;;;;1855599;76;21185;-74
2021/11/20 03:23:42;;;;;;;34.23;8.88;;;29.80;82.90;;;;;;1855345;76;21538;-75
2021/11/20 03:26:12;;;;;;;17.82;7.55;;;29.90;81.90;;;;;;1857160;75;21127;-73
2021/11/20 03:28:44;;;;;;;14.70;7.00;;;30.00;82.50;;;;;;1854682;75;21632;-74
2021/11/20 03:31:15;;;;;;;10.48;6.92;;;30.10;81.80;;;;;;1855008;76;21609;-74
2021/11/20 03:33:46;;;;;;;12.40;7.05;;;30.20;81.00;;;;;;1854908;75;21133;-74
2021/11/20 03:36:17;;;;;;;13.93;7.92;;;30.20;81.50;;;;;;1856426;76;21114;-73
2021/11/20 03:38:48;;;;;;;10.28;7.17;;;30.30;80.50;;;;;;1856007;77;21189;-74
2021/11/20 03:41:19;;;;;;;10.23;6.75;;;30.40;80.20;;;;;;1856350;76;21597;-74
2021/11/20 03:43:50;;;;;;;13.15;6.30;;;30.50;79.30;;;;;;1856467;75;21083;-73
2021/11/20 03:46:21;;;;;;;11.18;5.92;;;30.70;79.20;;;;;;1859218;75;21445;-73
2021/11/20 03:48:52;;;;;;;10.38;6.15;;;30.80;78.70;;;;;;1873882;75;21149;-76
2021/11/20 03:51:23;;;;;;;9.53;6.08;;;30.90;77.70;;;;;;1873442;75;21157;-74
2021/11/20 03:53:54;;;;;;;13.98;5.92;;;30.90;77.70;;;;;;1884643;75;21176;-74
2021/11/20 03:56:24;;;;;;;9.68;6.28;;;30.90;77.30;;;;;;1893215;75;21632;-74
2021/11/20 03:58:55;;;;;;;11.38;6.72;;;31.00;77.60;;;;;;1876266;75;21763;-74
2021/11/20 04:01:28;;;;;;;10.25;6.47;;;31.00;78.10;;;;;;1874450;75;21135;-74
2021/11/20 04:03:59;;;;;;;14.55;6.00;;;30.90;77.80;;;;;;1868835;75;21640;-73
2021/11/20 04:06:30;;;;;;;8.98;5.80;;;30.90;77.40;;;;;;1843136;77;21646;-73
2021/11/20 04:09:01;;;;;;;11.28;5.80;;;31.00;76.60;;;;;;1867313;75;21184;-73
2021/11/20 04:11:37;;;;;;;11.35;6.35;;;31.10;77.30;;;;;;1877284;74;21153;-73
2021/11/20 04:14:07;;;;;;;11.78;5.55;;;31.00;77.20;;;;;;1871876;75;21616;-74
2021/11/20 04:16:58;;;;;;;8.93;5.28;;;30.90;77.40;;;;;;1873954;74;21165;-75
2021/11/20 04:19:29;;;;;;;10.82;5.42;;;30.90;76.90;;;;;;1846272;77;21205;-74
2021/11/20 04:22:00;;;;;;;10.25;6.20;;;30.90;77.30;;;;;;1822329;77;21119;-73
2021/11/20 04:24:32;;;;;;;8.63;6.12;;;30.90;77.20;;;;;;1793639;80;21174;-73
2021/11/20 04:27:03;;;;;;;10.63;6.80;;;30.80;77.50;;;;;;1819336;79;21115;-75
2021/11/20 04:29:34;;;;;;;10.10;6.17;;;30.70;78.30;;;;;;1816392;79;21160;-73
2021/11/20 04:32:06;;;;;;;8.03;5.60;;;30.70;78.30;;;;;;1809434;79;21233;-73
2021/11/20 04:34:37;;;;;;;7.65;5.53;;;30.70;77.00;;;;;;1814287;79;21677;-73
2021/11/20 04:37:08;;;;;;;11.30;6.20;;;30.70;77.70;;;;;;1816672;79;21162;-73
2021/11/20 04:39:39;;;;;;;10.60;6.08;;;30.70;77.80;;;;;;1771885;79;21123;-75
2021/11/20 04:42:09;;;;;;;9.18;6.15;;;30.70;77.50;;;;;;1769905;80;21687;-74
2021/11/20 04:44:40;;;;;;;10.18;5.90;;;30.70;77.40;;;;;;1789815;80;21253;-74
2021/11/20 04:47:11;;;;;;;11.22;5.70;;;30.70;77.50;;;;;;1774808;80;21600;-73
2021/11/20 04:49:42;;;;;;;9.23;5.28;;;30.70;77.80;;;;;;1793431;79;21478;-73
2021/11/20 04:52:14;;;;;;;10.20;5.97;;;30.70;77.60;;;;;;1802456;79;22384;-81
2021/11/20 04:54:46;;;;;;;9.08;5.70;;;30.60;77.30;;;;;;1783312;80;21200;-81
2021/11/20 04:57:18;;;;;;;9.55;5.62;;;30.50;77.90;;;;;;1779308;80;21751;-80
2021/11/20 04:59:49;;;;;;;7.00;4.55;;;30.50;77.90;;;;;;1776875;80;21681;-81
2021/11/20 05:02:20;;;;;;;10.18;6.08;;;30.40;77.70;;;;;;1772558;80;21584;-82
2021/11/20 05:04:52;;;;;;;11.40;5.28;;;30.40;78.00;;;;;;1834859;77;21087;-81
2021/11/20 05:07:22;;;;;;;8.23;5.70;;;30.40;78.70;;;;;;1848834;77;21197;-81
2021/11/20 05:09:56;;;;;;;7.37;4.95;;;30.30;79.20;;;;;;1849782;77;21096;-80
2021/11/20 05:12:27;;;;;;;8.23;5.60;;;30.40;78.50;;;;;;1832051;77;21137;-77
2021/11/20 05:14:58;;;;;;;7.60;5.70;;;30.60;77.70;;;;;;1822214;77;21176;-76
2021/11/20 05:17:29;;;;;;;8.50;5.65;;;30.60;77.90;;;;;;1832495;77;21189;-76
2021/11/20 05:20:00;;;;;;;6.75;5.05;;;30.90;77.20;;;;;;1853791;76;21158;-76
2021/11/20 05:22:31;;;;;;;6.75;4.72;;;31.10;75.50;;;;;;1844972;77;21133;-77
2021/11/20 05:25:02;;;;;;;9.40;5.30;;;31.40;75.10;;;;;;1842795;77;21142;-77
2021/11/20 05:27:33;;;;;;;10.18;5.78;;;31.50;75.40;;;;;;1850198;77;21090;-78
2021/11/20 05:30:09;;;;;;;9.20;4.25;;;31.60;73.80;;;;;;1836982;77;21182;-77
2021/11/20 05:32:39;;;;;;;9.20;5.15;;;31.50;72.50;;;;;;1837558;77;21166;-76
2021/11/20 05:35:11;;;;;;;10.65;5.90;;;31.50;72.60;;;;;;1846314;77;21138;-78
2021/11/20 05:37:42;;;;;;;8.28;4.78;;;31.40;73.40;;;;;;1855520;77;21620;-81
2021/11/20 05:40:15;;;;;;;11.48;5.75;;;31.30;73.10;;;;;;1862696;77;21133;-76
2021/11/20 05:43:01;;;;;;;6.50;4.60;;;31.20;73.70;;;;;;1856775;77;21126;-78
2021/11/20 05:45:44;;;;;;;8.33;6.28;;;31.20;72.60;;;;;;1859654;77;21127;-76
2021/11/20 05:48:19;;;;;;;9.20;5.70;;;31.20;73.10;;;;;;1858682;77;21653;-78
2021/11/20 05:50:51;;;;;;;8.50;5.17;;;31.10;73.90;;;;;;1859153;77;21142;-78
2021/11/20 05:53:24;;;;;;;8.80;5.22;;;31.20;73.60;;;;;;1857000;77;21058;-77
2021/11/20 05:55:57;;;;;;;12.98;5.35;;;31.20;73.20;;;;;;1853967;76;21179;-75
2021/11/20 05:58:29;;;;;;;7.42;4.78;;;31.40;72.60;;;;;;1828923;77;21134;-81
2021/11/20 06:01:02;;;;;;;6.62;4.60;;;31.50;72.40;;;;;;1852994;77;21198;-81
2021/11/20 06:03:34;;;;;;;7.28;4.50;;;31.40;72.50;;;;;;1850623;76;21105;-80
2021/11/20 06:06:06;;;;;;;5.22;3.80;;;31.50;72.80;;;;;;1854336;76;21607;-80
2021/11/20 06:08:37;;;;;;;6.83;5.22;;;31.50;72.10;;;;;;1842665;77;21133;-81
2021/11/20 06:11:08;;;;;;;7.42;4.87;;;31.70;71.00;;;;;;1850415;77;21091;-81
2021/11/20 06:13:39;;;;;;;7.40;3.67;;;31.90;70.70;;;;;;1850023;77;21110;-79
2021/11/20 06:16:10;;;;;;;6.28;3.77;;;32.00;70.20;;;;;;1856484;76;21158;-80
2021/11/20 06:18:44;;;;;;;5.62;3.95;;;32.10;69.20;;;;;;1860815;76;21111;-81
2021/11/20 06:21:30;;;;;;;6.83;4.10;;;32.30;69.30;;;;;;1889513;75;21115;-79
2021/11/20 06:24:01;;;;;;;6.35;3.80;;;32.30;68.80;;;;;;1926374;73;21637;-81
2021/11/20 06:26:32;;;;;;;4.80;3.45;;;32.50;68.50;;;;;;1921132;74;21147;-79
2021/11/20 06:29:03;;;;;;;5.17;3.27;;;32.50;68.30;;;;;;1903628;74;21180;-81
2021/11/20 06:31:35;;;;;;;4.35;3.75;;;32.60;67.10;;;;;;1880022;74;21189;-82
2021/11/20 06:34:07;;;;;;;8.35;4.72;;;32.70;66.70;;;;;;1889720;74;21582;-80
2021/11/20 06:36:37;;;;;;;8.03;4.35;;;32.70;65.20;;;;;;1909547;74;21143;-79
2021/11/20 06:39:08;;;;;;;7.37;4.67;;;32.70;66.70;;;;;;1915371;74;21084;-80
2021/11/20 06:41:39;;;;;;;7.83;3.70;;;32.70;65.40;;;;;;1887530;74;21137;-82
2021/11/20 06:44:13;;;;;;;12.15;4.58;;;32.70;65.00;;;;;;1893017;73;21236;-81
2021/11/20 06:46:54;;;;;;;7.67;3.47;;;32.70;65.40;;;;;;1882946;74;21594;-81
2021/11/20 06:49:18;;;;;;;9.23;4.45;;;32.80;65.70;;;;;;1881237;75;21113;-80
2021/11/20 06:51:52;;;;;;;11.33;4.67;;;33.00;65.80;;;;;;1899926;74;21179;-80
2021/11/20 06:54:23;;;;;;;10.85;5.05;;;33.00;65.50;;;;;;1894439;74;21059;-80
2021/11/20 06:57:04;;;;;;;7.10;3.45;;;33.10;64.60;;;;;;1885566;75;21983;-80
2021/11/20 07:01:58;;;;;;;8.85;3.62;;;33.10;63.90;;;;;;1909404;74;21142;-80
2021/11/20 07:04:31;;;;;;;5.95;3.58;;;33.10;63.80;;;;;;1888062;73;21110;-80
2021/11/20 07:07:09;;;;;;;6.72;3.72;;;33.10;63.70;;;;;;1892927;74;21083;-81
2021/11/20 07:09:40;;;;;;;5.60;3.83;;;33.10;63.40;;;;;;1917290;74;21044;-80
2021/11/20 07:12:12;;;;;;;6.90;3.50;;;33.10;64.00;;;;;;1894907;73;21125;-81
2021/11/20 07:14:43;;;;;;;6.35;3.67;;;33.10;64.00;;;;;;1887996;74;21242;-80
2021/11/20 07:17:14;;;;;;;6.25;3.67;;;33.20;64.00;;;;;;1883235;74;21213;-81
2021/11/20 07:19:45;;;;;;;6.05;3.27;;;33.20;64.00;;;;;;1855587;74;21189;-81
2021/11/20 07:22:16;;;;;;;6.70;3.90;;;33.20;63.50;;;;;;1904556;74;21565;-82
2021/11/20 07:24:47;;;;;;;5.35;3.30;;;33.20;63.60;;;;;;1886085;75;21656;-81
2021/11/20 07:27:18;;;;;;;5.15;3.72;;;33.20;64.00;;;;;;1907739;74;21104;-81
2021/11/20 07:29:49;;;;;;;8.30;3.92;;;33.10;65.30;;;;;;1908579;73;21642;-82
2021/11/20 07:32:19;;;;;;;5.87;3.12;;;33.10;62.70;;;;;;1922819;74;21165;-82
2021/11/20 07:34:50;;;;;;;7.08;3.75;;;33.10;62.70;;;;;;1911445;73;21092;-81
2021/11/20 07:37:21;;;;;;;8.28;3.50;;;33.10;63.00;;;;;;1906550;75;21126;-82
2021/11/20 07:39:52;;;;;;;8.25;3.55;;;33.10;62.80;;;;;;1881027;75;21662;-81
2021/11/20 07:42:23;;;;;;;4.90;3.27;;;33.10;62.40;;;;;;1922172;74;21184;-81
2021/11/20 07:45:02;;;;;;;7.28;3.37;;;33.00;62.70;;;;;;1896769;72;21154;-83
2021/11/20 07:47:31;;;;;;;4.05;3.30;;;32.90;62.50;;;;;;1929334;74;21143;-82
2021/11/20 07:50:02;;;;;;;4.90;3.17;;;32.80;62.40;;;;;;1923575;74;21831;-81
2021/11/20 07:52:33;;;;;;;5.37;3.35;;;32.80;62.90;;;;;;1883419;75;21156;-81
2021/11/20 07:55:06;;;;;;;5.12;3.30;;;32.80;62.50;;;;;;1941471;74;21108;-82
2021/11/20 07:57:36;;;;;;;5.92;3.17;;;32.70;62.00;;;;;;1932135;74;21185;-81
2021/11/20 08:00:09;;;;;;;5.85;2.92;;;32.70;62.30;;;;;;1909584;74;21113;-81
2021/11/20 08:02:40;;;;;;;4.22;3.40;;;32.60;62.50;;;;;;1922371;74;21115;-81
2021/11/20 08:05:12;;;;;;;4.37;2.85;;;32.50;62.70;;;;;;1917906;73;21197;-81
2021/11/20 08:07:44;;;;;;;5.92;3.62;;;32.50;63.20;;;;;;1910884;74;21227;-81
2021/11/20 08:10:16;;;;;;;5.75;4.20;;;32.50;62.50;;;;;;1915326;74;21081;-82
2021/11/20 08:12:47;;;;;;;9.30;6.58;;;32.50;63.00;;;;;;1895400;74;21104;-82
2021/11/20 08:15:19;;;;;;;6.35;4.12;;;32.50;64.10;;;;;;1914997;74;21603;-82
2021/11/20 08:17:51;;;;;;;5.58;3.92;;;32.50;63.10;;;;;;1907419;74;21073;-80
2021/11/20 08:20:34;;;;;;;4.90;3.52;;;32.60;61.70;;;;;;1929579;73;21116;-81
2021/11/20 08:23:05;;;;;;;4.62;3.22;;;32.60;61.60;;;;;;1933751;73;21521;-80
2021/11/20 08:25:38;;;;;;;5.12;3.50;;;32.60;61.80;;;;;;1895903;74;21540;-80
2021/11/20 08:28:11;;;;;;;5.25;3.85;;;32.60;61.70;;;;;;1861409;76;21105;-81
2021/11/20 08:30:43;;;;;;;5.05;3.47;;;32.60;64.00;;;;;;1876202;76;21056;-82
2021/11/20 08:33:15;;;;;;;5.53;3.27;;;32.60;63.00;;;;;;1917677;73;21536;-81
2021/11/20 08:35:45;;;;;;;6.60;3.62;;;32.60;62.20;;;;;;1933270;74;21139;-82
2021/11/20 08:38:17;;;;;;;9.08;3.75;;;32.70;62.40;;;;;;1885926;76;21499;-81
2021/11/20 08:40:49;;;;;;;6.33;3.35;;;32.60;62.60;;;;;;1876833;75;21638;-82
2021/11/20 08:43:28;;;;;;;6.30;3.77;;;32.60;62.50;;;;;;1894228;74;21632;-82
2021/11/20 08:45:54;;;;;;;7.30;3.37;;;32.60;62.80;;;;;;1893979;74;21188;-81
2021/11/20 08:48:25;;;;;;;6.10;3.72;;;32.60;63.40;;;;;;1899639;73;21101;-82
2021/11/20 08:50:58;;;;;;;6.90;4.15;;;32.70;63.40;;;;;;1882042;75;21404;-82
2021/11/20 08:53:29;;;;;;;7.85;3.87;;;32.70;63.10;;;;;;1901029;74;21200;-83
2021/11/20 08:56:00;;;;;;;8.20;4.55;;;32.70;64.00;;;;;;1886620;75;21125;-83
2021/11/20 08:58:34;;;;;;;7.45;4.00;;;32.70;64.30;;;;;;1851705;76;21607;-83
2021/11/20 09:01:07;;;;;;;5.53;3.90;;;32.70;63.50;;;;;;1900108;74;21041;-83
2021/11/20 09:03:40;;;;;;;8.65;3.70;;;32.70;63.00;;;;;;1897760;73;21119;-83
2021/11/20 09:06:17;;;;;;;5.85;3.45;;;32.70;63.40;;;;;;1880737;75;21942;-83
2021/11/20 09:08:50;;;;;;;6.45;3.87;;;32.60;63.90;;;;;;1887813;74;21110;-83
2021/11/20 09:11:23;;;;;;;6.65;3.98;;;32.60;63.40;;;;;;1889656;74;21146;-82
2021/11/20 09:13:56;;;;;;;6.08;3.70;;;32.50;64.10;;;;;;1889988;74;21229;-84
2021/11/20 09:16:27;;;;;;;7.45;3.72;;;32.50;63.80;;;;;;1908475;73;21147;-83
2021/11/20 09:18:59;;;;;;;7.33;3.90;;;32.40;63.30;;;;;;1915847;73;21154;-82
2021/11/20 09:21:30;;;;;;;4.37;3.30;;;32.40;63.70;;;;;;1918159;73;21163;-82
2021/11/20 09:24:01;;;;;;;12.75;4.05;;;32.30;63.90;;;;;;1867990;74;21623;-81
2021/11/20 09:26:34;;;;;;;7.00;4.05;;;32.30;64.60;;;;;;1927315;74;21128;-81
2021/11/20 09:29:07;;;;;;;5.67;3.52;;;32.30;65.20;;;;;;1926715;74;21177;-81
2021/11/20 09:31:43;;;;;;;6.47;4.22;;;32.20;65.50;;;;;;1919623;74;21131;-84
2021/11/20 09:34:12;;;;;;;7.47;4.12;;;32.10;65.80;;;;;;1908819;74;21698;-80
2021/11/20 09:36:44;;;;;;;7.70;4.20;;;32.10;67.10;;;;;;1909115;74;21123;-80
2021/11/20 09:39:16;;;;;;;6.67;4.45;;;32.10;66.30;;;;;;1906806;74;21129;-80
2021/11/20 09:41:50;;;;;;;6.42;4.37;;;32.00;66.60;;;;;;1907055;74;21933;-81
2021/11/20 09:44:21;;;;;;;6.95;4.10;;;31.90;66.40;;;;;;1906043;74;21115;-81
2021/11/20 09:46:56;;;;;;;8.10;4.72;;;31.90;67.00;;;;;;1907951;73;21082;-80
2021/11/20 09:49:28;;;;;;;8.80;4.30;;;31.90;67.20;;;;;;1912560;73;21122;-80
2021/11/20 09:52:18;;;;;;;5.40;4.08;;;31.80;67.60;;;;;;1912133;75;21116;-81
2021/11/20 09:54:53;;;;;;;8.53;3.87;;;31.70;67.70;;;;;;1841138;76;21153;-81
2021/11/20 09:57:25;;;;;;;9.30;4.80;;;31.70;67.90;;;;;;1865501;75;21174;-81
2021/11/20 09:59:58;;;;;;;5.90;3.62;;;31.70;68.10;;;;;;1862035;76;21209;-81
2021/11/20 10:02:31;;;;;;;7.60;4.08;;;31.60;68.10;;;;;;1861695;75;21205;-81
2021/11/20 10:05:03;;;;;;;6.28;4.62;;;31.60;68.50;;;;;;1867367;75;21398;-81
2021/11/20 10:07:36;;;;;;;10.08;5.25;;;31.50;68.50;;;;;;1864322;76;21104;-81
2021/11/20 10:10:09;;;;;;;16.67;6.00;;;31.50;68.60;;;;;;1865058;76;21118;-80
2021/11/20 10:12:42;;;;;;;10.23;5.05;;;31.50;69.70;;;;;;1867277;76;21194;-79
2021/11/20 10:15:14;;;;;;;10.85;5.00;;;31.50;69.20;;;;;;1864563;77;21119;-81
2021/11/20 10:17:46;;;;;;;8.50;5.35;;;31.40;69.00;;;;;;1839827;76;21559;-82
2021/11/20 10:20:19;;;;;;;10.78;5.15;;;31.40;69.20;;;;;;1868012;77;21119;-82
2021/11/20 10:22:52;;;;;;;10.65;5.42;;;31.30;69.20;;;;;;1862011;76;21376;-82
2021/11/20 10:25:26;;;;;;;6.45;4.67;;;31.30;69.60;;;;;;1863779;77;21085;-82
2021/11/20 10:27:59;;;;;;;8.40;4.78;;;31.30;69.60;;;;;;1844879;77;21083;-83
2021/11/20 10:30:32;;;;;;;9.63;4.75;;;31.30;69.70;;;;;;1869859;76;21142;-81
2021/11/20 10:33:05;;;;;;;8.08;4.50;;;31.20;70.20;;;;;;1872103;75;21138;-81
2021/11/20 10:35:37;;;;;;;8.58;4.58;;;31.20;71.30;;;;;;1842507;77;21212;-80
2021/11/20 10:38:11;;;;;;;11.83;5.00;;;31.20;71.20;;;;;;1886304;74;21214;-79
2021/11/20 10:40:43;;;;;;;7.87;5.25;;;31.10;70.90;;;;;;1824911;77;21170;-81
2021/11/20 10:43:16;;;;;;;8.23;4.50;;;31.00;71.30;;;;;;1780520;79;21096;-81
2021/11/20 10:45:50;;;;;;;9.53;5.37;;;31.10;71.90;;;;;;1837349;77;21082;-80
2021/11/20 10:48:23;;;;;;;12.68;4.87;;;31.00;71.90;;;;;;1824808;76;21131;-79
2021/11/20 10:50:57;;;;;;;13.13;4.92;;;30.90;71.80;;;;;;1838660;77;21082;-79
2021/11/20 10:53:30;;;;;;;11.30;6.37;;;30.90;72.20;;;;;;1831553;77;21094;-79
2021/11/20 10:56:01;;;;;;;11.40;7.20;;;30.90;72.20;;;;;;1816583;79;21102;-79
2021/11/20 10:58:34;;;;;;;11.45;6.60;;;30.80;72.40;;;;;;1820048;77;21149;-80
2021/11/20 11:01:08;;;;;;;9.23;6.40;;;30.80;73.10;;;;;;1818114;77;21091;-81
2021/11/20 11:03:42;;;;;;;9.45;6.53;;;30.70;73.00;;;;;;1841268;77;21071;-80
2021/11/20 11:06:15;;;;;;;10.75;6.28;;;30.70;73.30;;;;;;1847060;77;21196;-80
2021/11/20 11:08:48;;;;;;;14.35;8.18;;;30.70;73.70;;;;;;1836738;78;21063;-80
2021/11/20 11:11:22;;;;;;;13.88;10.75;;;30.70;73.90;;;;;;1829470;78;21727;-80
2021/11/20 11:13:56;;;;;;;13.30;8.90;;;30.60;74.10;;;;;;1831311;77;21102;-81
2021/11/20 11:16:29;;;;;;;20.23;10.72;;;30.60;74.00;;;;;;1838865;78;21541;-80
2021/11/20 11:19:03;;;;;;;20.40;11.83;;;30.60;75.20;;;;;;1844377;76;21184;-78
2021/11/20 11:21:37;;;;;;;16.85;10.25;;;30.50;74.50;;;;;;1838732;76;21146;-79
2021/11/20 11:24:13;;;;;;;16.57;10.40;;;30.50;74.50;;;;;;1833796;78;21149;-81
2021/11/20 11:26:46;;;;;;;17.40;10.60;;;30.50;74.50;;;;;;1825465;78;21136;-79
2021/11/20 11:29:20;;;;;;;16.90;9.50;;;30.50;74.50;;;;;;1825877;78;21158;-81
2021/11/20 11:31:52;;;;;;;17.48;9.80;;;30.50;74.90;;;;;;1829506;77;21102;-81
2021/11/20 11:34:26;;;;;;;15.23;9.55;;;30.50;74.40;;;;;;1828762;78;21577;-81
2021/11/20 11:36:59;;;;;;;14.85;8.80;;;30.40;74.50;;;;;;1827300;77;21114;-80
2021/11/20 11:39:33;;;;;;;15.45;9.93;;;30.40;74.80;;;;;;1830155;76;21134;-79
2021/11/20 11:42:06;;;;;;;16.17;9.20;;;30.40;74.80;;;;;;1829308;77;21098;-81
2021/11/20 11:44:39;;;;;;;13.78;8.88;;;30.40;75.00;;;;;;1822550;78;21142;-80
2021/11/20 11:47:12;;;;;;;19.70;14.45;;;30.40;75.10;;;;;;1828089;77;22302;-78
2021/11/20 11:49:45;;;;;;;18.30;10.38;;;30.40;75.40;;;;;;1829219;77;21165;-80
2021/11/20 11:52:18;;;;;;;14.58;9.73;;;30.30;75.90;;;;;;1824037;78;21087;-80
2021/11/20 11:54:52;;;;;;;16.17;9.78;;;30.30;76.50;;;;;;1831207;77;21130;-79
2021/11/20 11:57:25;;;;;;;17.82;10.25;;;30.20;76.60;;;;;;1826845;77;21815;-81
2021/11/20 11:59:58;;;;;;;18.57;10.15;;;30.10;77.00;;;;;;1828506;76;21684;-80
2021/11/20 12:02:31;;;;;;;16.73;9.95;;;30.10;77.60;;;;;;1828410;77;21130;-79
2021/11/20 12:05:04;;;;;;;26.93;11.22;;;30.00;77.20;;;;;;1826794;77;21223;-81
2021/11/20 12:07:45;;;;;;;17.92;10.60;;;30.00;77.40;;;;;;1824556;77;21047;-80
2021/11/20 12:10:15;;;;;;;14.93;10.50;;;29.90;77.50;;;;;;1827965;77;21165;-81
2021/11/20 12:12:48;;;;;;;20.12;12.60;;;29.90;77.40;;;;;;1829466;76;21079;-81
2021/11/20 12:15:18;;;;;;;18.20;12.43;;;29.90;78.00;;;;;;1866293;75;21084;-82
2021/11/20 12:17:52;;;;;;;21.68;12.50;;;29.80;78.80;;;;;;1815858;78;21552;-80
2021/11/20 12:20:24;;;;;;;22.10;13.15;;;29.80;78.70;;;;;;1868945;76;21143;-81
2021/11/20 12:23:00;;;;;;;23.40;13.75;;;29.80;78.50;;;;;;1868856;76;21244;-78
2021/11/20 12:25:33;;;;;;;21.48;13.93;;;29.70;78.60;;;;;;1866808;76;21613;-81
2021/11/20 12:28:07;;;;;;;27.73;14.87;;;29.70;78.80;;;;;;1865414;76;21200;-80
2021/11/20 12:30:41;;;;;;;19.45;13.40;;;29.60;79.00;;;;;;1857468;76;21225;-81
2021/11/20 12:33:13;;;;;;;23.60;14.45;;;29.60;79.20;;;;;;1863753;76;21235;-80
2021/11/20 12:35:46;;;;;;;26.93;15.08;;;29.60;79.20;;;;;;1864384;75;21135;-81
2021/11/20 12:38:19;;;;;;;28.12;15.53;;;29.50;80.00;;;;;;1869794;76;21717;-80
2021/11/20 12:40:52;;;;;;;25.75;14.90;;;29.50;80.60;;;;;;1855229;76;21186;-80
2021/11/20 12:43:25;;;;;;;27.87;15.40;;;29.50;80.50;;;;;;1867386;76;21161;-80
2021/11/20 12:45:58;;;;;;;25.32;17.00;;;29.50;81.20;;;;;;1862612;76;21178;-81
2021/11/20 12:48:32;;;;;;;23.42;14.73;;;29.50;80.30;;;;;;1869551;75;21181;-80
2021/11/20 12:51:05;;;;;;;21.50;14.60;;;29.60;80.10;;;;;;1863241;75;21091;-80
2021/11/20 12:53:38;;;;;;;21.52;14.47;;;29.60;80.50;;;;;;1880592;75;21154;-82
2021/11/20 12:56:12;;;;;;;23.47;14.40;;;29.60;80.10;;;;;;1862623;75;21111;-81
2021/11/20 12:58:44;;;;;;;23.73;14.45;;;29.70;80.70;;;;;;1876049;75;21588;-81
2021/11/20 13:01:18;;;;;;;24.50;15.20;;;29.70;80.60;;;;;;1864126;77;21158;-80
2021/11/20 13:03:52;;;;;;;24.57;14.18;;;29.70;80.60;;;;;;1863535;77;21606;-79
2021/11/20 13:06:25;;;;;;;27.67;16.37;;;29.70;80.40;;;;;;1828596;77;21232;-80
2021/11/20 13:08:58;;;;;;;24.35;15.55;;;29.80;80.80;;;;;;1816547;77;21124;-79